createdAt,value
2018-10-16T00:01:11.961Z,42.5
2018-10-16T00:06:10.808Z,42.5
2018-10-16T00:11:09.157Z,42.5
2018-10-16T00:16:07.628Z,42.5
2018-10-16T00:21:06.024Z,42.5
2018-10-16T00:26:04.399Z,42.5
2018-10-16T00:31:02.715Z,42.5
2018-10-16T00:36:01.610Z,42.5
2018-10-16T00:41:00.026Z,42.5
2018-10-16T00:45:58.586Z,42.5
2018-10-16T00:50:56.875Z,42.5
2018-10-16T00:55:55.167Z,42.6
2018-10-16T01:00:53.554Z,42.5
2018-10-16T01:05:52.011Z,42.5
2018-10-16T01:10:49.968Z,42.5
2018-10-16T01:15:48.381Z,42.6
2018-10-16T01:20:47.042Z,42.6
2018-10-16T01:25:45.939Z,42.6
2018-10-16T01:30:44.272Z,42.6
2018-10-16T01:35:43.165Z,42.5
2018-10-16T01:45:49.062Z,42.5
2018-10-16T01:50:47.498Z,42.6
2018-10-16T01:55:46.246Z,42.6
2018-10-16T02:00:44.541Z,42.6
2018-10-16T02:05:43.400Z,42.6
2018-10-16T02:10:41.947Z,42.6
2018-10-16T02:15:40.453Z,42.6
2018-10-16T02:20:38.825Z,42.6
2018-10-16T02:25:37.712Z,42.6
2018-10-16T02:30:35.859Z,42.6
2018-10-16T02:35:34.298Z,42.6
2018-10-16T02:40:32.804Z,42.6
2018-10-16T02:45:31.155Z,42.6
2018-10-16T02:50:29.703Z,42.7
2018-10-16T02:55:28.636Z,42.7
2018-10-16T03:00:27.373Z,42.6
2018-10-16T03:05:26.214Z,42.6
2018-10-16T03:10:24.759Z,42.7
2018-10-16T03:15:23.300Z,42.7
2018-10-16T03:20:22.145Z,42.7
2018-10-16T03:25:20.526Z,42.7
2018-10-16T03:30:18.975Z,42.6
2018-10-16T03:35:17.538Z,42.7
2018-10-16T03:40:16.205Z,42.7
2018-10-16T03:45:14.961Z,42.7
2018-10-16T03:50:13.840Z,42.7
2018-10-16T03:55:11.666Z,42.7
2018-10-16T04:00:10.547Z,42.7
2018-10-16T04:05:09.333Z,42.7
2018-10-16T04:10:08.120Z,42.7
2018-10-16T04:15:06.172Z,42.7
2018-10-16T04:20:04.957Z,42.7
2018-10-16T04:25:03.205Z,42.7
2018-10-16T04:30:01.343Z,42.7
2018-10-16T04:34:59.773Z,42.7
2018-10-16T04:39:58.322Z,42.7
2018-10-16T04:44:56.996Z,42.7
2018-10-16T04:49:55.228Z,42.7
2018-10-16T04:54:54.060Z,42.7
2018-10-16T04:59:52.378Z,42.7
2018-10-16T05:04:51.032Z,42.7
2018-10-16T05:09:49.264Z,42.7
2018-10-16T05:14:47.048Z,42.7
2018-10-16T05:19:45.408Z,42.8
2018-10-16T05:24:43.718Z,42.7
2018-10-16T05:29:42.162Z,42.8
2018-10-16T05:34:40.673Z,42.8
2018-10-16T05:39:39.172Z,42.8
2018-10-16T05:44:37.854Z,42.7
2018-10-16T05:49:36.049Z,42.7
2018-10-16T05:54:34.838Z,42.7
2018-10-16T05:59:33.618Z,42.7
2018-10-16T06:04:32.161Z,42.7
2018-10-16T06:09:30.430Z,42.7
2018-10-16T06:14:28.956Z,42.7
2018-10-16T06:19:27.236Z,42.7
2018-10-16T06:24:25.625Z,42.8
2018-10-16T06:29:23.902Z,42.8
2018-10-16T06:34:22.815Z,42.8
2018-10-16T06:39:21.127Z,42.7
2018-10-16T06:44:19.266Z,42.7
2018-10-16T06:49:17.770Z,42.8
2018-10-16T06:54:16.594Z,42.8
2018-10-16T06:59:14.826Z,42.8
2018-10-16T07:04:13.747Z,42.8
2018-10-16T07:09:12.461Z,42.9
2018-10-16T07:14:11.171Z,42.9
2018-10-16T07:19:09.710Z,42.9
2018-10-16T07:24:07.772Z,43
2018-10-16T07:29:06.330Z,43
2018-10-16T07:34:04.860Z,43
2018-10-16T07:39:03.503Z,43
2018-10-16T07:44:02.175Z,43
2018-10-16T07:49:00.645Z,43.1
2018-10-16T07:53:59.551Z,43.1
2018-10-16T07:58:57.833Z,43.2
2018-10-16T08:03:56.678Z,43.2
2018-10-16T08:08:55.236Z,43.2
2018-10-16T08:13:53.980Z,43.3
2018-10-16T08:18:52.260Z,43.3
2018-10-16T08:23:50.720Z,43.3
2018-10-16T08:28:49.267Z,43.4
2018-10-16T08:33:48.324Z,43.5
2018-10-16T08:38:46.808Z,43.5
2018-10-16T08:43:45.300Z,43.6
2018-10-16T08:48:43.852Z,43.5
2018-10-16T08:53:42.777Z,43.6
2018-10-16T08:58:41.460Z,43.6
2018-10-16T09:03:40.403Z,43.6
2018-10-16T09:08:38.841Z,43.6
2018-10-16T09:13:37.739Z,43.7
2018-10-16T09:18:36.491Z,43.7
2018-10-16T09:23:35.507Z,43.7
2018-10-16T09:28:34.480Z,43.8
2018-10-16T09:33:33.469Z,43.8
2018-10-16T09:38:32.479Z,43.8
2018-10-16T09:43:31.299Z,43.9
2018-10-16T09:48:30.402Z,43.9
2018-10-16T09:53:29.097Z,43.9
2018-10-16T09:58:27.956Z,44
2018-10-16T10:03:26.742Z,44
2018-10-16T10:08:25.740Z,44.1
2018-10-16T10:13:24.621Z,44.1
2018-10-16T10:18:22.980Z,44.1
2018-10-16T10:23:22.166Z,44.1
2018-10-16T10:28:20.756Z,44.2
2018-10-16T10:33:19.723Z,44.2
2018-10-16T10:38:18.388Z,44.2
2018-10-16T10:43:17.211Z,44.2
2018-10-16T10:48:16.168Z,44.2
2018-10-16T10:53:15.150Z,44.2
2018-10-16T10:58:13.907Z,44.2
2018-10-16T11:03:12.507Z,44.3
2018-10-16T11:08:11.236Z,44.3
2018-10-16T11:13:10.316Z,44.3
2018-10-16T11:18:08.795Z,44.3
2018-10-16T11:23:07.743Z,44.3
2018-10-16T11:28:06.406Z,44.3
2018-10-16T11:33:05.167Z,44.3
2018-10-16T11:38:04.162Z,44.3
2018-10-16T11:43:02.641Z,44.4
2018-10-16T11:48:01.184Z,44.4
2018-10-16T11:53:00.039Z,44.4
2018-10-16T11:57:58.976Z,44.4
2018-10-16T12:02:57.460Z,44.3
2018-10-16T12:07:55.959Z,44.4
2018-10-16T12:12:55.008Z,44.3
2018-10-16T12:17:53.507Z,44.3
2018-10-16T12:22:52.104Z,44.3
2018-10-16T12:27:50.843Z,44.3
2018-10-16T12:32:49.790Z,44.3
2018-10-16T12:37:48.251Z,44.3
2018-10-16T12:42:47.342Z,44.3
2018-10-16T12:47:46.356Z,44.3
2018-10-16T12:52:45.188Z,44.3
2018-10-16T12:57:44.109Z,44.3
2018-10-16T13:02:42.489Z,44.3
2018-10-16T13:07:41.015Z,44.3
2018-10-16T13:12:40.224Z,44.3
2018-10-16T13:17:38.851Z,44.3
2018-10-16T13:22:37.224Z,44.3
2018-10-16T13:27:35.202Z,44.2
2018-10-16T13:32:34.038Z,44.2
2018-10-16T13:37:32.556Z,44.2
2018-10-16T13:42:31.385Z,44.2
2018-10-16T13:47:29.774Z,44.2
2018-10-16T13:52:29.022Z,44.2
2018-10-16T13:57:27.540Z,44.1
2018-10-16T14:02:26.143Z,44.1
2018-10-16T14:07:24.656Z,44.1
2018-10-16T14:12:23.740Z,44.1
2018-10-16T14:17:21.612Z,44.1
2018-10-16T14:22:20.381Z,44.1
2018-10-16T14:27:19.229Z,44.1
2018-10-16T14:32:18.005Z,44.1
2018-10-16T14:37:16.952Z,44.1
2018-10-16T14:42:15.428Z,44.1
2018-10-16T14:47:13.982Z,44
2018-10-16T14:52:13.194Z,44
2018-10-16T14:57:12.225Z,44
2018-10-16T15:02:11.094Z,44
2018-10-16T15:07:09.013Z,44
2018-10-16T15:12:07.687Z,44
2018-10-16T15:17:06.482Z,43.9
2018-10-16T15:22:05.349Z,43.9
2018-10-16T15:27:03.777Z,43.8
2018-10-16T15:32:02.401Z,43.8
2018-10-16T15:37:00.834Z,43.8
2018-10-16T15:41:59.436Z,43.7
2018-10-16T15:46:58.573Z,43.7
2018-10-16T15:51:57.584Z,43.6
2018-10-16T15:56:56.247Z,43.6
2018-10-16T16:01:54.689Z,43.5
2018-10-16T16:06:53.076Z,43.5
2018-10-16T16:11:52.121Z,43.4
2018-10-16T16:16:50.757Z,43.4
2018-10-16T16:21:49.613Z,43.3
2018-10-16T16:26:48.495Z,43.3
2018-10-16T16:31:47.571Z,43.3
2018-10-16T16:36:46.330Z,43.3
2018-10-16T16:41:44.878Z,43.3
2018-10-16T16:46:43.550Z,43.3
2018-10-16T16:51:42.194Z,43.3
2018-10-16T16:56:41.071Z,43.3
2018-10-16T17:01:39.868Z,43.3
2018-10-16T17:06:38.262Z,43.2
2018-10-16T17:11:36.923Z,43.2
2018-10-16T17:16:35.846Z,43.1
2018-10-16T17:21:34.573Z,43.1
2018-10-16T17:26:33.012Z,43
2018-10-16T17:31:31.569Z,43
2018-10-16T17:36:30.207Z,43.1
2018-10-16T17:41:28.807Z,43.2
2018-10-16T17:46:27.621Z,43.2
2018-10-16T17:51:26.387Z,43.2
2018-10-16T17:56:24.805Z,43.2
2018-10-16T18:01:23.342Z,43.2
2018-10-16T18:06:21.739Z,43.2
2018-10-16T18:11:20.375Z,43.1
2018-10-16T18:16:18.962Z,43.1
2018-10-16T18:21:17.438Z,43.1
2018-10-16T18:26:15.920Z,43
2018-10-16T18:31:14.828Z,43
2018-10-16T18:36:13.275Z,42.9
2018-10-16T18:41:12.146Z,43
2018-10-16T18:46:10.522Z,43.1
2018-10-16T18:51:09.266Z,43.1
2018-10-16T18:56:08.048Z,43.1
2018-10-16T19:01:06.517Z,43
2018-10-16T19:06:05.337Z,43
2018-10-16T19:11:04.040Z,43
2018-10-16T19:16:02.375Z,43
2018-10-16T19:21:00.625Z,42.9
2018-10-16T19:25:59.165Z,42.9
2018-10-16T19:30:58.004Z,42.9
2018-10-16T19:35:56.440Z,42.9
2018-10-16T19:40:55.378Z,42.9
2018-10-16T19:45:54.320Z,42.9
2018-10-16T19:50:52.571Z,42.9
2018-10-16T19:55:50.747Z,42.9
2018-10-16T20:00:49.581Z,42.9
2018-10-16T20:05:48.050Z,42.9
2018-10-16T20:10:47.254Z,42.9
2018-10-16T20:15:46.081Z,42.9
2018-10-16T20:20:44.590Z,42.9
2018-10-16T20:25:42.957Z,42.9
2018-10-16T20:30:41.394Z,42.9
2018-10-16T20:35:39.742Z,42.9
2018-10-16T20:40:38.712Z,42.9
2018-10-16T20:45:36.960Z,42.9
2018-10-16T20:50:35.898Z,42.9
2018-10-16T20:55:34.354Z,42.9
2018-10-16T21:00:32.855Z,42.9
2018-10-16T21:05:31.568Z,42.8
2018-10-16T21:10:30.532Z,42.8
2018-10-16T21:15:29.337Z,42.8
2018-10-16T21:20:28.027Z,42.8
2018-10-16T21:25:26.746Z,42.8
2018-10-16T21:30:25.552Z,42.8
2018-10-16T21:35:24.299Z,42.8
2018-10-16T21:40:23.085Z,42.8
2018-10-16T21:45:21.571Z,42.9
2018-10-16T21:50:20.510Z,42.9
2018-10-16T21:55:18.926Z,42.9
2018-10-16T22:00:17.869Z,42.9
2018-10-16T22:05:16.471Z,42.9
2018-10-16T22:10:15.108Z,42.9
2018-10-16T22:15:13.775Z,42.9
2018-10-16T22:20:12.187Z,42.8
2018-10-16T22:25:10.727Z,42.8
2018-10-16T22:30:09.329Z,42.8
2018-10-16T22:35:07.861Z,42.9
2018-10-16T22:40:05.930Z,42.9
2018-10-16T22:45:04.812Z,42.9
2018-10-16T22:50:03.689Z,42.9
2018-10-16T22:55:02.410Z,42.9
2018-10-16T23:00:00.930Z,42.9
2018-10-16T23:04:59.531Z,42.9
2018-10-16T23:09:57.986Z,42.9
2018-10-16T23:14:56.926Z,42.9
2018-10-16T23:19:55.684Z,42.9
2018-10-16T23:24:54.589Z,42.9
2018-10-16T23:29:53.333Z,42.9
2018-10-16T23:34:51.938Z,42.9
2018-10-16T23:39:50.396Z,42.9
2018-10-16T23:44:48.966Z,42.9
2018-10-16T23:49:47.900Z,42.9
2018-10-16T23:54:46.112Z,42.9
2018-10-16T23:59:44.272Z,42.9
